Latest Weather Observations for Point Fawcett

IDD60801

Issued at 11:01 pm CST Monday 27 April 2015 (issued every 30 minutes, with the page automatically refreshed every 10 minutes)

About weather observations | Map of weather stations | Latest weather observations for NT | Other Formats
Station Details ID: 200731 Name: POINT FAWCETT Lat: -11.76 Lon: 130.03 Height: 6.5 m
Data from the previous 72 hours. | See also: Recent months at Point Fawcett
Date/Time
CST
Temp
°C
App
Temp
°C
Dew
Point
Rel
Hum
%
Delta-T
°C
Wind Press
QNH
hPa
Press
MSL
hPa
Rain
since 9 am
mm
Dir
 
Spd
km/h
Gust
km/h
Spd
kts
Gust
kts
27/11:00pm 20.5 21.9 18.6 89 1.2 ESE 9 9 5 5 1013.6 - -
27/10:30pm 20.7 22.2 18.8 89 1.2 ESE 9 11 5 6 1013.9 - -
27/10:00pm 20.8 22.2 18.7 88 1.3 ESE 9 11 5 6 1014.0 - -
27/09:30pm 20.8 22.2 18.7 88 1.3 ESE 9 13 5 7 1014.1 - -
27/09:00pm 20.7 22.1 18.6 88 1.3 ESE 9 11 5 6 1013.8 1013.7 -
27/08:30pm 21.0 22.4 18.6 86 1.5 ESE 9 11 5 6 1013.4 - -
27/07:30pm 21.7 23.0 18.5 82 2.0 ESE 9 11 5 6 1012.9 - -
27/07:00pm 22.6 24.3 18.4 77 2.6 SE 7 7 4 4 1012.7 - -
27/06:30pm 24.5 26.5 19.1 72 3.4 ESE 7 7 4 4 1012.5 - -
27/06:00pm 26.0 28.1 18.9 65 4.5 SE 6 7 3 4 1012.1 1012.0 -
27/05:30pm 27.5 28.9 17.9 55 6.1 ESE 7 13 4 7 1011.7 - -
27/05:00pm 28.4 29.1 17.0 50 7.1 ESE 9 19 5 10 1011.2 - -
27/04:30pm 29.3 29.1 16.8 47 7.8 ESE 13 20 7 11 1010.8 - -
27/04:00pm 29.7 29.5 16.8 45 8.1 E 13 24 7 13 1010.6 - -
27/03:30pm 30.4 30.6 16.8 44 8.6 ESE 11 19 6 10 1010.6 - -
27/03:00pm 30.1 29.8 16.5 44 8.5 ESE 13 24 7 13 1010.8 1010.7 -
27/02:30pm 29.9 29.2 16.3 43 8.5 SE 15 28 8 15 1011.1 - -
27/02:00pm 30.0 29.6 17.1 46 8.1 ESE 15 24 8 13 1011.4 - -
27/01:30pm 30.3 29.2 16.3 42 8.7 SE 17 26 9 14 1011.7 - -
27/01:00pm 30.0 29.0 15.7 42 8.8 ESE 15 24 8 13 1012.2 - -
27/12:30pm 30.0 29.6 17.1 46 8.1 ESE 15 26 8 14 1012.5 - -
27/12:00pm 29.3 27.2 14.7 41 8.9 ESE 19 33 10 18 1012.9 1012.8 -
27/11:30am 29.5 27.6 15.2 41 8.8 ESE 19 33 10 18 1013.0 - -
27/11:00am 29.7 28.4 16.8 45 8.1 ESE 19 35 10 19 1013.2 - -
27/10:30am 29.5 30.0 18.3 51 7.2 ESE 13 22 7 12 1013.4 - -
27/10:00am 28.6 28.2 18.1 53 6.7 ESE 17 30 9 16 1013.7 - -
27/09:30am 27.9 28.6 18.0 55 6.3 ESE 11 15 6 8 1013.6 - -
27/09:00am 26.4 27.4 17.7 58 5.5 ESE 9 15 5 8 1013.8 1013.7 -
27/08:30am 25.9 27.0 18.1 62 4.9 ESE 9 20 5 11 1013.5 - -
27/08:00am 23.8 24.9 18.0 70 3.6 ESE 9 13 5 7 1013.3 - -
27/07:30am 23.1 23.9 17.3 70 3.6 E 9 15 5 8 1012.8 - -
27/07:00am 23.4 23.8 17.2 68 3.8 ESE 11 17 6 9 1012.2 - -
27/06:30am 23.3 23.6 17.1 68 3.8 ESE 11 15 6 8 1011.9 - -
27/06:00am 22.6 23.0 16.4 68 3.8 E 9 17 5 9 1011.7 1011.6 -
27/05:30am 22.6 22.6 16.2 67 3.9 ESE 11 15 6 8 1011.5 - -
27/05:00am 20.9 21.5 16.7 77 2.5 ESE 9 13 5 7 1011.5 - -
27/04:30am 20.2 21.4 18.3 89 1.2 ESE 9 13 5 7 1011.6 - -
27/04:00am 19.4 20.8 18.6 95 0.5 ESE 9 15 5 8 1011.6 - -
27/03:30am 19.8 21.7 19.0 95 0.5 ESE 7 11 4 6 1011.7 - -
27/03:00am 20.1 22.2 19.3 95 0.5 SSE 7 9 4 5 1011.6 1011.5 -
27/02:30am 20.2 22.3 19.4 95 0.5 SSE 7 9 4 5 1011.7 - -
27/02:00am 19.9 21.9 19.1 95 0.5 SSE 7 9 4 5 1012.0 - -
27/01:30am 19.7 21.6 18.9 95 0.5 SSE 7 9 4 5 1012.2 - -
27/01:00am 19.5 21.2 18.5 94 0.6 SE 7 9 4 5 1012.5 - -
27/12:30am 19.5 21.2 18.5 94 0.6 SE 7 9 4 5 1012.8 - -
27/12:00am 19.4 21.0 18.2 93 0.7 SE 7 9 4 5 1012.9 1012.8 -
 
Date/Time
CST
Temp
°C
App
Temp
°C
Dew
Point
Rel
Hum
%
Delta-T
°C
Wind Press
QNH
hPa
Press
MSL
hPa
Rain
since 9 am
mm
Dir
 
Spd
km/h
Gust
km/h
Spd
kts
Gust
kts
26/11:30pm 19.6 20.9 18.4 93 0.7 S 9 13 5 7 1013.2 - -
26/10:30pm 19.9 21.2 18.4 91 0.9 ESE 9 11 5 6 1013.2 - -
26/10:00pm 20.2 21.9 18.5 90 1.1 ESE 7 9 4 5 1013.4 - -
26/09:30pm 20.9 22.7 18.8 88 1.3 E 7 9 4 5 1013.5 - -
26/09:00pm 21.7 23.3 19.1 85 1.6 E 9 11 5 6 1013.4 1013.3 -
26/08:30pm 21.7 23.3 19.1 85 1.6 E 9 11 5 6 1013.3 - -
26/07:30pm 21.6 23.0 18.6 83 1.9 E 9 13 5 7 1012.4 - -
26/07:00pm 22.5 24.3 18.7 79 2.4 SE 7 9 4 5 1011.9 - -
26/06:30pm 24.5 26.6 19.3 73 3.3 SE 7 9 4 5 1011.4 - -
26/06:00pm 26.3 28.4 19.4 66 4.5 ESE 7 11 4 6 1011.2 1011.1 -
26/05:30pm 28.0 30.0 19.2 58 5.7 ESE 7 11 4 6 1010.9 - -
26/05:00pm 29.0 29.6 18.7 53 6.6 ESE 13 22 7 12 1010.6 - -
26/04:30pm 29.5 30.9 18.6 52 7.0 ESE 9 15 5 8 1010.4 - -
26/04:00pm 29.6 30.4 18.1 50 7.4 ESE 11 17 6 9 1010.5 - -
26/03:30pm 29.5 28.9 16.7 46 8.0 E 15 28 8 15 1010.5 - -
26/03:00pm 29.7 29.6 17.8 48 7.6 ESE 15 24 8 13 1010.7 1010.6 -
26/02:00pm 30.1 29.7 17.2 46 8.2 ESE 15 30 8 16 1011.1 - -
26/01:30pm 29.8 29.9 19.2 53 6.9 ESE 17 30 9 16 1011.4 - -
26/01:00pm 29.9 31.1 22.1 63 5.3 ESE 19 30 10 16 1011.7 - -
26/12:30pm 30.5 32.4 22.7 63 5.3 E 17 26 9 14 1011.9 - -
26/12:00pm 30.7 33.3 22.6 62 5.5 SE 13 24 7 13 1012.2 1012.1 -
26/11:30am 30.7 33.9 22.3 61 5.7 E 9 17 5 9 1012.5 - -
26/10:30am 30.8 34.9 24.0 67 4.7 E 9 15 5 8 1013.0 - -
26/10:00am 29.3 32.4 22.8 68 4.4 E 11 15 6 8 1013.0 - -
26/09:30am 28.4 31.6 23.1 73 3.6 E 11 17 6 9 1012.7 - -
26/09:00am 26.9 29.9 22.7 78 2.8 E 11 15 6 8 1012.4 1012.3 -
26/08:30am 25.7 30.0 24.3 92 1.0 E 9 15 5 8 1012.1 - -
26/08:00am 24.2 27.6 23.3 95 0.6 E 11 13 6 7 1011.9 - -
26/07:30am 22.5 25.0 21.8 96 0.5 E 11 15 6 8 1011.7 - -
26/07:00am 22.1 24.8 21.4 96 0.5 E 9 11 5 6 1011.3 - -
26/06:30am 22.3 25.1 21.6 96 0.5 ESE 9 9 5 5 1010.8 - -
26/06:00am 22.4 25.6 21.7 96 0.5 SE 7 9 4 5 1010.7 1010.6 -
26/05:30am 22.5 25.4 21.8 96 0.5 ESE 9 11 5 6 1010.6 - -
26/05:00am 22.4 25.3 21.7 96 0.5 ESE 9 9 5 5 1010.5 - -
26/04:30am 22.4 25.6 21.7 96 0.5 ESE 7 9 4 5 1010.6 - -
26/04:00am 22.5 25.8 21.8 96 0.5 ESE 7 7 4 4 1010.7 - -
26/03:30am 22.6 25.9 21.9 96 0.5 ESE 7 9 4 5 1010.7 - -
26/03:00am 22.8 26.2 22.0 95 0.5 SE 7 7 4 4 1010.7 1010.6 -
26/02:30am 22.9 26.4 22.1 95 0.5 SE 7 7 4 4 1010.8 - -
26/02:00am 23.0 26.7 22.2 95 0.5 SSE 6 7 3 4 1011.0 - -
26/01:30am 23.1 26.8 22.3 95 0.5 S 6 7 3 4 1011.1 - -
26/01:00am 23.2 27.0 22.4 95 0.5 S 6 7 3 4 1011.5 - -
26/12:30am 23.3 27.0 22.3 94 0.7 S 6 7 3 4 1011.8 - -
26/12:00am 23.3 27.0 22.3 94 0.7 S 6 7 3 4 1011.8 1011.7 -
 
Date/Time
CST
Temp
°C
App
Temp
°C
Dew
Point
Rel
Hum
%
Delta-T
°C
Wind Press
QNH
hPa
Press
MSL
hPa
Rain
since 9 am
mm
Dir
 
Spd
km/h
Gust
km/h
Spd
kts
Gust
kts
25/11:30pm 23.4 27.2 22.4 94 0.7 S 6 7 3 4 1011.5 - -
25/11:00pm 23.6 28.5 22.4 93 0.8 CALM 0 0 0 0 1011.5 - -
25/10:30pm 24.0 28.8 22.8 93 0.8 NW 2 7 1 4 1011.5 - -
25/10:00pm 24.5 28.2 23.3 93 0.8 NNW 9 13 5 7 1011.6 - -
25/09:30pm 24.5 28.7 23.1 92 0.9 NE 6 7 3 4 1011.4 - -
25/09:00pm 24.6 29.1 23.0 91 1.1 NE 4 9 2 5 1011.3 1011.2 -
25/08:30pm 25.0 29.7 23.4 91 1.1 E 4 6 2 3 1011.2 - -
25/08:00pm 25.4 30.2 23.5 89 1.3 N 4 7 2 4 1010.9 - -
25/07:30pm 25.9 30.8 23.6 87 1.6 NNW 4 7 2 4 1010.3 - -
25/07:00pm 26.8 32.6 23.9 84 2.0 CALM 0 0 0 0 1010.0 - -
25/06:30pm 27.9 33.7 24.5 82 2.4 N 2 7 1 4 1009.4 - -
25/06:00pm 27.8 32.7 24.4 82 2.4 NNE 6 7 3 4 1009.1 1009.0 -
25/05:30pm 28.0 31.6 24.4 81 2.5 N 13 19 7 10 1009.1 - -
25/05:00pm 29.6 34.7 24.7 75 3.4 NNW 6 7 3 4 1008.7 - -
25/04:30pm 28.7 34.0 24.9 80 2.7 N 6 7 3 4 1008.7 - -
25/04:00pm 27.3 30.3 24.0 82 2.3 N 15 24 8 13 1008.3 - -
25/03:30pm 29.7 35.2 24.6 74 3.6 SSW 4 9 2 5 1008.5 - -
25/03:00pm 30.3 34.6 24.2 70 4.3 SW 9 15 5 8 1008.3 1008.2 -
25/02:30pm 30.5 34.6 23.9 68 4.6 SSW 9 13 5 7 1008.8 - -
25/02:00pm 32.2 35.8 23.7 61 5.9 WSW 11 17 6 9 1009.1 - -
25/01:30pm 31.5 36.1 24.1 65 5.2 WSW 7 11 4 6 1009.4 - -
25/01:00pm 31.2 35.5 24.3 66 4.8 W 9 11 5 6 1009.7 - -
25/12:30pm 31.4 36.0 24.8 68 4.6 NW 9 11 5 6 1009.8 - -
25/12:00pm 32.5 36.9 25.1 65 5.2 N 11 15 6 8 1010.0 1009.9 -
25/11:30am 32.3 37.0 24.9 65 5.2 N 9 13 5 7 1010.4 - -
25/11:00am 31.4 35.6 23.5 63 5.5 N 7 11 4 6 1010.7 - -
25/10:30am 31.1 35.2 24.0 66 4.9 N 9 11 5 6 1011.0 - -
25/10:00am 30.1 34.5 23.8 69 4.4 NNE 7 11 4 6 1011.0 - -
25/09:30am 28.9 33.5 24.2 76 3.3 NNE 7 11 4 6 1010.8 - -
25/09:00am 27.7 33.7 26.3 92 1.0 ENE 7 9 4 5 1010.6 1010.5 -
25/08:30am 26.3 32.0 25.6 96 0.5 E 6 6 3 3 1010.2 - -
25/08:00am 24.4 28.9 23.7 96 0.5 E 6 6 3 3 1010.0 - -
25/07:30am 22.8 26.4 22.1 96 0.5 E 6 7 3 4 1009.8 - -
25/07:00am 22.2 25.3 21.5 96 0.5 E 7 7 4 4 1009.8 - -
25/06:30am 22.3 25.5 21.6 96 0.5 ESE 7 7 4 4 1009.5 - -
25/06:00am 22.4 25.6 21.7 96 0.5 ESE 7 9 4 5 1009.2 1009.1 -
25/05:30am 22.6 25.9 21.8 95 0.5 ESE 7 9 4 5 1009.1 - -
25/05:00am 22.7 26.0 21.9 95 0.5 SE 7 9 4 5 1009.2 - -
25/04:30am 22.7 26.2 21.9 95 0.5 SE 6 7 3 4 1009.2 - -
25/04:00am 22.9 26.5 22.1 95 0.5 SE 6 7 3 4 1009.4 - -
25/03:30am 23.2 27.0 22.4 95 0.5 S 6 6 3 3 1009.5 - -
25/03:00am 23.4 27.3 22.6 95 0.5 SE 6 7 3 4 1009.6 1009.5 -
25/02:30am 23.7 27.8 22.9 95 0.5 SE 6 7 3 4 1009.8 - -
25/02:00am 24.1 28.3 23.2 95 0.6 E 6 7 3 4 1009.9 - -
25/01:30am 24.5 29.0 23.6 95 0.6 SE 6 6 3 3 1009.9 - -
25/01:00am 24.8 29.5 23.9 95 0.6 SSE 6 6 3 3 1010.1 - -
25/12:30am 24.7 29.2 23.7 94 0.7 SSE 6 7 3 4 1010.4 - -
25/12:00am 24.9 29.6 23.9 94 0.7 SSE 6 7 3 4 1010.6 1010.5 -

Other Formats:

Comma delimited format used in spreadsheet applications
http://www.bom.gov.au/fwo/IDD60801/IDD60801.94122.axf

JavaScript Object Notation format (JSON) in row-major order
http://www.bom.gov.au/fwo/IDD60801/IDD60801.94122.json